createdAt,value
2023-03-05T00:01:27.451Z,1.97
2023-03-05T00:03:56.530Z,1.96
2023-03-05T00:06:26.680Z,1.93
2023-03-05T00:08:56.766Z,1.96
2023-03-05T00:11:28.076Z,1.89
2023-03-05T00:13:56.826Z,1.87
2023-03-05T00:16:26.982Z,1.79
2023-03-05T00:18:59.544Z,1.73
2023-03-05T00:21:28.828Z,1.77
2023-03-05T00:23:57.641Z,1.81
2023-03-05T00:26:26.907Z,1.72
2023-03-05T00:28:56.938Z,1.60
2023-03-05T00:31:30.374Z,1.59
2023-03-05T00:34:00.686Z,1.52
2023-03-05T00:36:28.906Z,1.44
2023-03-05T00:38:56.587Z,1.38
2023-03-05T00:41:24.456Z,1.39
2023-03-05T00:43:52.053Z,1.36
2023-03-05T00:46:19.568Z,1.32
2023-03-05T00:48:47.602Z,1.21
2023-03-05T00:51:15.190Z,1.20
2023-03-05T00:53:42.798Z,1.16
2023-03-05T00:56:10.879Z,1.15
2023-03-05T00:58:39.046Z,1.10
2023-03-05T01:01:07.422Z,1.05
2023-03-05T01:03:36.008Z,1.01
2023-03-05T01:06:09.221Z,1.04
2023-03-05T01:08:37.729Z,0.95
2023-03-05T01:11:06.533Z,0.87
2023-03-05T01:13:34.341Z,0.77
2023-03-05T01:16:03.105Z,0.79
2023-03-05T01:18:30.770Z,0.76
2023-03-05T01:20:58.656Z,0.66
2023-03-05T01:23:26.790Z,0.76
2023-03-05T01:25:56.126Z,0.67
2023-03-05T01:28:24.237Z,0.64
2023-03-05T01:30:52.357Z,0.47
2023-03-05T01:33:20.333Z,0.49
2023-03-05T01:35:48.792Z,0.44
2023-03-05T01:38:17.298Z,0.38
2023-03-05T01:40:45.028Z,0.33
2023-03-05T01:43:12.579Z,0.38
2023-03-05T01:46:18.987Z,0.27
2023-03-05T01:49:09.002Z,0.27
2023-03-05T01:51:56.499Z,0.27
2023-03-05T01:54:29.033Z,0.29
2023-03-05T01:56:57.494Z,0.22
2023-03-05T01:59:25.696Z,0.28
2023-03-05T02:01:56.121Z,0.29
2023-03-05T02:04:31.845Z,0.22
2023-03-05T02:06:59.620Z,0.29
2023-03-05T02:09:28.773Z,0.32
2023-03-05T02:11:57.013Z,0.32
2023-03-05T02:14:25.900Z,0.37
2023-03-05T02:16:53.558Z,0.36
2023-03-05T02:19:21.086Z,0.37
2023-03-05T02:21:50.122Z,0.41
2023-03-05T02:24:32.077Z,0.43
2023-03-05T02:27:01.045Z,0.40
2023-03-05T02:29:29.532Z,0.42
2023-03-05T02:31:57.469Z,0.39
2023-03-05T02:34:25.288Z,0.36
2023-03-05T02:36:55.523Z,0.36
2023-03-05T02:39:23.510Z,0.28
2023-03-05T02:41:51.603Z,0.25
2023-03-05T02:44:19.165Z,0.35
2023-03-05T02:46:47.093Z,0.27
2023-03-05T02:49:14.977Z,0.33
2023-03-05T02:51:43.073Z,0.19
2023-03-05T02:54:11.048Z,0.31
2023-03-05T02:56:39.703Z,0.28
2023-03-05T02:59:07.315Z,0.33
2023-03-05T03:01:35.903Z,0.34
2023-03-05T03:04:03.867Z,0.32
2023-03-05T03:06:31.334Z,0.28
2023-03-05T03:08:58.857Z,0.22
2023-03-05T03:11:26.687Z,0.16
2023-03-05T03:13:54.319Z,0.06
2023-03-05T03:16:21.995Z,0.09
2023-03-05T03:18:49.927Z,-0.04
2023-03-05T03:21:20.194Z,-0.09
2023-03-05T03:23:47.648Z,-0.13
2023-03-05T03:26:15.612Z,-0.20
2023-03-05T03:28:43.650Z,-0.23
2023-03-05T03:31:11.549Z,-0.14
2023-03-05T03:33:39.502Z,-0.18
2023-03-05T03:36:07.954Z,-0.18
2023-03-05T03:38:35.839Z,-0.19
2023-03-05T03:41:06.946Z,-0.25
2023-03-05T03:43:35.793Z,-0.18
2023-03-05T03:46:07.454Z,-0.25
2023-03-05T03:48:36.122Z,-0.28
2023-03-05T03:51:07.592Z,-0.36
2023-03-05T03:53:35.514Z,-0.27
2023-03-05T03:56:03.608Z,-0.36
2023-03-05T03:58:31.239Z,-0.40
2023-03-05T04:00:59.025Z,-0.42
2023-03-05T04:03:26.919Z,-0.31
2023-03-05T04:05:54.564Z,-0.38
2023-03-05T04:08:22.130Z,-0.28
2023-03-05T04:10:50.162Z,-0.33
2023-03-05T04:13:17.914Z,-0.28
2023-03-05T04:15:45.457Z,-0.28
2023-03-05T04:18:13.241Z,-0.22
2023-03-05T04:20:41.077Z,-0.29
2023-03-05T04:23:08.600Z,-0.33
2023-03-05T04:25:36.377Z,-0.35
2023-03-05T04:28:04.026Z,-0.42
2023-03-05T04:30:31.875Z,-0.41
2023-03-05T04:32:59.723Z,-0.45
2023-03-05T04:35:27.289Z,-0.50
2023-03-05T04:37:55.033Z,-0.55
2023-03-05T04:40:23.016Z,-0.52
2023-03-05T04:42:50.566Z,-0.50
2023-03-05T04:45:18.277Z,-0.56
2023-03-05T04:47:46.440Z,-0.64
2023-03-05T04:50:14.679Z,-0.64
2023-03-05T04:52:43.948Z,-0.68
2023-03-05T04:55:13.719Z,-0.71
2023-03-05T04:57:41.757Z,-0.76
2023-03-05T05:00:14.295Z,-0.86
2023-03-05T05:02:43.658Z,-0.81
2023-03-05T05:05:17.363Z,-0.78
2023-03-05T05:07:45.587Z,-0.93
2023-03-05T05:10:14.194Z,-0.93
2023-03-05T05:12:41.875Z,-0.82
2023-03-05T05:15:10.261Z,-0.85
2023-03-05T05:17:37.790Z,-0.91
2023-03-05T05:20:06.793Z,-0.88
2023-03-05T05:22:35.231Z,-0.83
2023-03-05T05:25:03.273Z,-0.85
2023-03-05T05:27:31.078Z,-0.79
2023-03-05T05:29:59.299Z,-0.90
2023-03-05T05:32:26.895Z,-0.91
2023-03-05T05:34:58.500Z,-0.89
2023-03-05T05:37:26.869Z,-0.95
2023-03-05T05:39:54.583Z,-0.98
2023-03-05T05:42:24.323Z,-0.94
2023-03-05T05:44:52.142Z,-0.89
2023-03-05T05:47:19.760Z,-0.93
2023-03-05T05:49:47.586Z,-0.85
2023-03-05T05:52:15.443Z,-0.82
2023-03-05T05:54:42.968Z,-0.78
2023-03-05T05:57:10.539Z,-0.74
2023-03-05T05:59:38.510Z,-0.67
2023-03-05T06:02:08.005Z,-0.65
2023-03-05T06:04:36.304Z,-0.60
2023-03-05T06:07:04.135Z,-0.67
2023-03-05T06:09:31.660Z,-0.62
2023-03-05T06:11:59.663Z,-0.56
2023-03-05T06:14:27.138Z,-0.44
2023-03-05T06:16:54.787Z,-0.40
2023-03-05T06:19:22.638Z,-0.29
2023-03-05T06:21:50.245Z,-0.13
2023-03-05T06:24:19.427Z,0.02
2023-03-05T06:26:48.651Z,0.10
2023-03-05T06:29:16.550Z,0.22
2023-03-05T06:31:44.340Z,0.28
2023-03-05T06:34:12.121Z,0.48
2023-03-05T06:36:40.540Z,0.64
2023-03-05T06:39:08.269Z,0.77
2023-03-05T06:41:36.442Z,0.93
2023-03-05T06:44:04.184Z,1.03
2023-03-05T06:46:37.253Z,1.08
2023-03-05T06:49:05.353Z,1.21
2023-03-05T06:51:40.407Z,1.27
2023-03-05T06:54:13.440Z,1.40
2023-03-05T06:56:46.072Z,1.51
2023-03-05T06:59:15.710Z,1.58
2023-03-05T07:01:44.197Z,1.69
2023-03-05T07:04:13.426Z,1.79
2023-03-05T07:06:44.842Z,1.86
2023-03-05T07:09:15.222Z,1.97
2023-03-05T07:11:43.508Z,2.07
2023-03-05T07:14:11.195Z,2.21
2023-03-05T07:16:38.733Z,2.32
2023-03-05T07:19:08.074Z,2.49
2023-03-05T07:21:39.263Z,2.55
2023-03-05T07:24:09.169Z,2.52
2023-03-05T07:26:36.707Z,2.62
2023-03-05T07:29:04.407Z,2.78
2023-03-05T07:31:32.515Z,2.99
2023-03-05T07:34:01.335Z,3.02
2023-03-05T07:36:29.180Z,2.92
2023-03-05T07:38:57.046Z,3.00
2023-03-05T07:41:25.053Z,3.22
2023-03-05T07:43:54.224Z,3.59
2023-03-05T07:46:26.225Z,3.89
2023-03-05T07:48:57.122Z,4.02
2023-03-05T07:51:26.762Z,3.95
2023-03-05T07:53:57.451Z,4.14
2023-03-05T07:56:29.050Z,4.19
2023-03-05T07:58:56.563Z,4.12
2023-03-05T08:01:24.263Z,4.26
2023-03-05T08:03:52.481Z,4.14
2023-03-05T08:06:20.007Z,4.09
2023-03-05T08:08:48.191Z,4.15
2023-03-05T08:11:16.444Z,4.11
2023-03-05T08:13:44.646Z,4.10
2023-03-05T08:16:15.356Z,4.01
2023-03-05T08:18:43.707Z,4.17
2023-03-05T08:21:21.602Z,4.18
2023-03-05T08:23:49.635Z,4.27
2023-03-05T08:26:19.966Z,4.35
2023-03-05T08:28:48.064Z,4.48
2023-03-05T08:31:18.203Z,4.47
2023-03-05T08:33:45.770Z,4.52
2023-03-05T08:36:13.501Z,4.75
2023-03-05T08:38:42.059Z,4.69
2023-03-05T08:41:09.558Z,4.80
2023-03-05T08:43:37.376Z,4.74
2023-03-05T08:46:05.463Z,4.90
2023-03-05T08:48:33.533Z,5.08
2023-03-05T08:51:12.826Z,5.38
2023-03-05T08:53:43.578Z,5.35
2023-03-05T08:56:11.927Z,5.50
2023-03-05T08:58:40.101Z,5.50
2023-03-05T09:01:07.652Z,5.57
2023-03-05T09:03:35.372Z,5.77
2023-03-05T09:06:06.352Z,5.83
2023-03-05T09:08:34.765Z,5.68
2023-03-05T09:11:03.737Z,5.83
2023-03-05T09:13:31.707Z,5.80
2023-03-05T09:16:01.846Z,5.79
2023-03-05T09:18:29.974Z,6.00
2023-03-05T09:20:58.269Z,5.93
2023-03-05T09:23:25.922Z,5.86
2023-03-05T09:25:53.438Z,5.89
2023-03-05T09:28:21.653Z,5.76
2023-03-05T09:30:49.177Z,5.92
2023-03-05T09:33:17.020Z,5.99
2023-03-05T09:35:44.942Z,6.08
2023-03-05T09:38:12.516Z,6.19
2023-03-05T09:40:49.171Z,6.12
2023-03-05T09:43:48.001Z,6.28
2023-03-05T09:46:41.968Z,6.13
2023-03-05T09:49:18.847Z,6.01
2023-03-05T09:51:50.819Z,6.02
2023-03-05T09:54:57.354Z,5.99
2023-03-05T09:57:49.200Z,5.83
2023-03-05T10:00:36.639Z,5.94
2023-03-05T10:03:10.322Z,5.98
2023-03-05T10:05:53.115Z,5.89
2023-03-05T10:08:23.184Z,5.68
2023-03-05T10:10:54.409Z,5.78
2023-03-05T10:13:23.618Z,5.67
2023-03-05T10:16:06.366Z,5.37
2023-03-05T10:18:47.228Z,5.46
2023-03-05T10:21:23.816Z,5.42
2023-03-05T10:23:56.391Z,5.43
2023-03-05T10:26:30.295Z,5.51
2023-03-05T10:29:08.705Z,5.52
2023-03-05T10:32:11.835Z,5.39
2023-03-05T10:34:39.655Z,5.26
2023-03-05T10:37:47.210Z,5.18
2023-03-05T10:40:32.661Z,5.23
2023-03-05T10:43:22.036Z,5.39
2023-03-05T10:45:52.469Z,5.39
2023-03-05T10:48:39.473Z,5.40
2023-03-05T10:51:21.763Z,5.45
2023-03-05T10:53:57.238Z,5.26
2023-03-05T10:56:27.798Z,5.28
2023-03-05T10:58:55.442Z,5.36
2023-03-05T11:01:29.049Z,5.40
2023-03-05T11:03:59.383Z,5.39
2023-03-05T11:06:35.769Z,5.40
2023-03-05T11:09:20.575Z,5.56
2023-03-05T11:12:03.782Z,5.46
2023-03-05T11:14:33.545Z,5.57
2023-03-05T11:17:02.877Z,5.74
2023-03-05T11:19:33.276Z,5.86
2023-03-05T11:22:21.726Z,5.86
2023-03-05T11:25:14.214Z,5.89
2023-03-05T11:27:54.932Z,5.99
2023-03-05T11:30:29.302Z,5.74
2023-03-05T11:33:11.437Z,6.21
2023-03-05T11:35:42.072Z,6.40
2023-03-05T11:38:46.894Z,6.31
2023-03-05T11:41:14.862Z,6.48
2023-03-05T11:43:44.039Z,6.56
2023-03-05T11:46:12.812Z,6.44
2023-03-05T11:48:43.953Z,6.38
2023-03-05T11:51:33.943Z,6.68
2023-03-05T11:54:07.440Z,6.58
2023-03-05T11:56:37.815Z,6.66
2023-03-05T11:59:12.212Z,6.58
2023-03-05T12:01:50.464Z,6.78
2023-03-05T12:04:19.450Z,6.82
2023-03-05T12:06:49.969Z,7.07
2023-03-05T12:09:26.548Z,7.13
2023-03-05T12:12:07.319Z,7.17
2023-03-05T12:15:00.688Z,7.09
2023-03-05T12:17:33.053Z,7.24
2023-03-05T12:20:36.219Z,7.03
2023-03-05T12:23:04.261Z,7.16
2023-03-05T12:25:49.290Z,7.29
2023-03-05T12:28:36.983Z,7.15
2023-03-05T12:31:26.884Z,7.35
2023-03-05T12:33:54.752Z,7.41
2023-03-05T12:36:23.201Z,7.37
2023-03-05T12:38:53.613Z,7.45
2023-03-05T12:41:25.385Z,7.66
2023-03-05T12:44:06.012Z,7.30
2023-03-05T12:46:37.451Z,7.48
2023-03-05T12:49:20.471Z,7.34
2023-03-05T12:51:52.599Z,7.30
2023-03-05T12:54:29.165Z,7.52
2023-03-05T12:56:59.389Z,7.77
2023-03-05T12:59:35.139Z,7.77
2023-03-05T13:02:05.049Z,7.56
2023-03-05T13:04:34.135Z,7.62
2023-03-05T13:07:04.985Z,7.86
2023-03-05T13:09:36.394Z,7.61
2023-03-05T13:12:12.327Z,7.53
2023-03-05T13:14:47.813Z,7.48
2023-03-05T13:17:34.435Z,7.46
2023-03-05T13:20:22.782Z,7.35
2023-03-05T13:23:14.452Z,7.33
2023-03-05T13:25:43.624Z,7.27
2023-03-05T13:28:14.938Z,7.34
2023-03-05T13:30:51.917Z,7.28
2023-03-05T13:33:30.120Z,7.20
2023-03-05T13:35:58.539Z,7.23
2023-03-05T13:38:45.385Z,7.22
2023-03-05T13:41:24.865Z,7.12
2023-03-05T13:43:58.171Z,7.13
2023-03-05T13:46:38.693Z,7.00
2023-03-05T13:49:19.107Z,6.88
2023-03-05T13:51:56.667Z,6.79
2023-03-05T13:54:25.448Z,6.74
2023-03-05T13:57:02.630Z,6.77
2023-03-05T13:59:40.455Z,6.69
2023-03-05T14:02:17.119Z,6.77
2023-03-05T14:04:46.559Z,6.66
2023-03-05T14:07:20.201Z,6.73
2023-03-05T14:09:49.776Z,6.78
2023-03-05T14:12:37.158Z,6.81
2023-03-05T14:15:21.027Z,6.75
2023-03-05T14:17:49.037Z,6.87
2023-03-05T14:20:29.092Z,6.85
2023-03-05T14:22:59.636Z,6.81
2023-03-05T14:25:34.997Z,6.63
2023-03-05T14:28:16.801Z,6.67
2023-03-05T14:30:46.196Z,6.55
2023-03-05T14:33:14.701Z,6.54
2023-03-05T14:35:48.726Z,6.58
2023-03-05T14:38:24.124Z,6.51
2023-03-05T14:40:51.948Z,6.50
2023-03-05T14:43:20.213Z,6.50
2023-03-05T14:45:48.125Z,6.44
2023-03-05T14:48:18.781Z,6.39
2023-03-05T14:50:54.657Z,6.43
2023-03-05T14:53:26.867Z,6.42
2023-03-05T14:55:56.952Z,6.40
2023-03-05T14:58:27.558Z,6.38
2023-03-05T15:00:56.854Z,6.32
2023-03-05T15:03:25.203Z,6.39
2023-03-05T15:05:54.940Z,6.34
2023-03-05T15:08:28.597Z,6.31
2023-03-05T15:10:56.900Z,6.25
2023-03-05T15:13:25.374Z,6.26
2023-03-05T15:15:54.087Z,6.17
2023-03-05T15:18:22.807Z,6.30
2023-03-05T15:20:53.135Z,6.27
2023-03-05T15:23:20.925Z,6.35
2023-03-05T15:25:48.984Z,6.38
2023-03-05T15:28:17.241Z,6.43
2023-03-05T15:30:47.172Z,6.29
2023-03-05T15:33:17.366Z,6.32
2023-03-05T15:35:45.780Z,6.34
2023-03-05T15:38:13.767Z,6.30
2023-03-05T15:40:41.736Z,6.30
2023-03-05T15:43:10.435Z,6.38
2023-03-05T15:45:38.314Z,6.35
2023-03-05T15:48:06.792Z,6.35
2023-03-05T15:50:36.275Z,6.37
2023-03-05T15:53:04.146Z,6.32
2023-03-05T15:55:31.967Z,6.31
2023-03-05T15:58:00.110Z,6.27
2023-03-05T16:00:30.721Z,6.33
2023-03-05T16:02:59.065Z,6.23
2023-03-05T16:05:27.352Z,6.26
2023-03-05T16:07:55.962Z,6.20
2023-03-05T16:10:27.415Z,6.25
2023-03-05T16:13:08.582Z,6.21
2023-03-05T16:15:38.472Z,6.21
2023-03-05T16:18:08.355Z,6.17
2023-03-05T16:20:37.826Z,6.11
2023-03-05T16:23:06.688Z,6.14
2023-03-05T16:25:34.518Z,6.12
2023-03-05T16:28:03.165Z,6.12
2023-03-05T16:30:33.133Z,6.05
2023-03-05T16:33:01.440Z,6.00
2023-03-05T16:35:29.656Z,5.99
2023-03-05T16:37:58.391Z,6.00
2023-03-05T16:40:38.841Z,5.99
2023-03-05T16:43:15.320Z,5.97
2023-03-05T16:45:43.169Z,5.93
2023-03-05T16:48:10.984Z,5.96
2023-03-05T16:50:39.176Z,5.93
2023-03-05T16:53:08.089Z,5.84
2023-03-05T16:55:36.823Z,5.86
2023-03-05T16:58:05.513Z,5.86
2023-03-05T17:00:33.464Z,5.79
2023-03-05T17:03:01.317Z,5.82
2023-03-05T17:05:29.907Z,5.77
2023-03-05T17:07:57.684Z,5.78
2023-03-05T17:10:25.730Z,5.78
2023-03-05T17:12:54.497Z,5.79
2023-03-05T17:15:22.821Z,5.75
2023-03-05T17:17:50.489Z,5.72
2023-03-05T17:20:20.109Z,5.76
2023-03-05T17:22:48.018Z,5.73
2023-03-05T17:25:16.175Z,5.74
2023-03-05T17:27:43.914Z,5.73
2023-03-05T17:30:12.972Z,5.73
2023-03-05T17:32:41.781Z,5.69
2023-03-05T17:35:20.723Z,5.72
2023-03-05T17:37:49.888Z,5.69
2023-03-05T17:40:18.331Z,5.64
2023-03-05T17:42:45.891Z,5.62
2023-03-05T17:45:14.398Z,5.63
2023-03-05T17:47:42.698Z,5.55
2023-03-05T17:50:12.746Z,5.56
2023-03-05T17:52:41.793Z,5.58
2023-03-05T17:55:11.712Z,5.57
2023-03-05T17:57:41.768Z,5.56
2023-03-05T18:00:20.827Z,5.56
2023-03-05T18:02:50.052Z,5.57
2023-03-05T18:05:20.498Z,5.58
2023-03-05T18:07:48.694Z,5.54
2023-03-05T18:10:18.323Z,5.54
2023-03-05T18:12:46.964Z,5.52
2023-03-05T18:15:17.468Z,5.46
2023-03-05T18:17:45.341Z,5.45
2023-03-05T18:20:29.643Z,5.45
2023-03-05T18:22:59.149Z,5.44
2023-03-05T18:25:31.206Z,5.44
2023-03-05T18:28:01.260Z,5.43
2023-03-05T18:30:29.791Z,5.40
2023-03-05T18:32:57.718Z,5.40
2023-03-05T18:35:25.996Z,5.39
2023-03-05T18:37:55.561Z,5.36
2023-03-05T18:40:25.577Z,5.31
2023-03-05T18:42:54.158Z,5.32
2023-03-05T18:45:22.885Z,5.26
2023-03-05T18:47:54.174Z,5.34
2023-03-05T18:50:24.753Z,5.31
2023-03-05T18:52:52.770Z,5.28
2023-03-05T18:55:24.312Z,5.21
2023-03-05T18:57:53.007Z,5.19
2023-03-05T19:00:23.295Z,5.27
2023-03-05T19:02:51.217Z,5.19
2023-03-05T19:05:19.329Z,5.12
2023-03-05T19:07:47.667Z,5.15
2023-03-05T19:10:17.678Z,5.16
2023-03-05T19:13:18.685Z,5.07
2023-03-05T19:16:11.272Z,5.02
2023-03-05T19:19:20.156Z,4.99
2023-03-05T19:21:57.058Z,5.03
2023-03-05T19:24:29.839Z,5.05
2023-03-05T19:27:00.335Z,5.06
2023-03-05T19:29:34.330Z,5.03
2023-03-05T19:32:02.263Z,5.02
2023-03-05T19:34:31.364Z,4.97
2023-03-05T19:36:59.272Z,4.99
2023-03-05T19:39:27.214Z,4.96
2023-03-05T19:41:55.506Z,4.97
2023-03-05T19:44:23.338Z,4.95
2023-03-05T19:46:51.296Z,4.95
2023-03-05T19:49:19.990Z,4.93
2023-03-05T19:51:48.402Z,4.90
2023-03-05T19:54:19.780Z,4.82
2023-03-05T19:56:48.780Z,4.86
2023-03-05T19:59:18.926Z,4.82
2023-03-05T20:01:48.418Z,4.78
2023-03-05T20:04:19.398Z,4.82
2023-03-05T20:06:47.220Z,4.77
2023-03-05T20:09:16.732Z,4.74
2023-03-05T20:11:45.975Z,4.74
2023-03-05T20:14:14.635Z,4.72
2023-03-05T20:16:43.445Z,4.71
2023-03-05T20:19:16.437Z,4.64
2023-03-05T20:21:44.883Z,4.59
2023-03-05T20:24:15.454Z,4.62
2023-03-05T20:26:44.696Z,4.60
2023-03-05T20:29:16.127Z,4.64
2023-03-05T20:31:47.025Z,4.62
2023-03-05T20:34:17.094Z,4.59
2023-03-05T20:36:45.736Z,4.56
2023-03-05T20:39:13.720Z,4.54
2023-03-05T20:41:41.797Z,4.57
2023-03-05T20:44:11.484Z,4.46
2023-03-05T20:47:22.787Z,4.43
2023-03-05T20:49:56.089Z,4.50
2023-03-05T20:52:23.910Z,4.51
2023-03-05T20:54:52.066Z,4.43
2023-03-05T20:57:19.863Z,4.46
2023-03-05T20:59:47.698Z,4.39
2023-03-05T21:02:18.444Z,4.40
2023-03-05T21:04:46.383Z,4.41
2023-03-05T21:07:14.361Z,4.42
2023-03-05T21:09:42.621Z,4.44
2023-03-05T21:12:10.945Z,4.46
2023-03-05T21:14:40.633Z,4.43
2023-03-05T21:17:09.126Z,4.42
2023-03-05T21:19:38.100Z,4.41
2023-03-05T21:22:06.511Z,4.40
2023-03-05T21:25:15.761Z,4.37
2023-03-05T21:27:43.380Z,4.39
2023-03-05T21:30:12.242Z,4.35
2023-03-05T21:32:40.161Z,4.39
2023-03-05T21:35:08.185Z,4.39
2023-03-05T21:37:42.448Z,4.35
2023-03-05T21:40:15.723Z,4.40
2023-03-05T21:42:44.470Z,4.41
2023-03-05T21:45:15.878Z,4.40
2023-03-05T21:47:44.031Z,4.40
2023-03-05T21:50:13.530Z,4.40
2023-03-05T21:52:41.257Z,4.39
2023-03-05T21:55:13.838Z,4.38
2023-03-05T21:57:41.869Z,4.39
2023-03-05T22:00:11.197Z,4.38
2023-03-05T22:02:40.881Z,4.42
2023-03-05T22:05:12.902Z,4.43
2023-03-05T22:07:40.675Z,4.42
2023-03-05T22:10:15.115Z,4.43
2023-03-05T22:13:10.241Z,4.41
2023-03-05T22:15:57.869Z,4.42
2023-03-05T22:18:27.608Z,4.39
2023-03-05T22:20:56.388Z,4.39
2023-03-05T22:23:25.528Z,4.41
2023-03-05T22:25:57.804Z,4.42
2023-03-05T22:28:26.799Z,4.34
2023-03-05T22:30:54.458Z,4.36
2023-03-05T22:33:23.252Z,4.31
2023-03-05T22:35:51.337Z,4.31
2023-03-05T22:38:19.180Z,4.32
2023-03-05T22:40:48.678Z,4.34
2023-03-05T22:43:16.969Z,4.30
2023-03-05T22:45:45.169Z,4.34
2023-03-05T22:48:12.984Z,4.33
2023-03-05T22:50:42.278Z,4.33
2023-03-05T22:53:10.240Z,4.36
2023-03-05T22:55:40.107Z,4.33
2023-03-05T22:58:07.958Z,4.34
2023-03-05T23:00:35.819Z,4.33
2023-03-05T23:03:03.827Z,4.31
2023-03-05T23:05:31.772Z,4.27
2023-03-05T23:07:59.324Z,4.24
2023-03-05T23:10:28.846Z,4.22
2023-03-05T23:12:58.675Z,4.21
2023-03-05T23:15:31.029Z,4.19
2023-03-05T23:17:59.367Z,4.16
2023-03-05T23:20:30.778Z,4.10
2023-03-05T23:22:59.175Z,4.09
2023-03-05T23:25:29.866Z,4.04
2023-03-05T23:27:58.267Z,4.04
2023-03-05T23:30:26.829Z,3.96
2023-03-05T23:32:56.880Z,3.96
2023-03-05T23:35:36.335Z,4.00
2023-03-05T23:38:06.511Z,4.01
2023-03-05T23:40:43.210Z,4.01
2023-03-05T23:43:11.761Z,3.91
2023-03-05T23:45:44.362Z,3.92
2023-03-05T23:48:12.268Z,3.93
2023-03-05T23:50:42.280Z,3.89
2023-03-05T23:53:10.335Z,3.87
2023-03-05T23:55:43.113Z,3.86
2023-03-05T23:58:10.836Z,3.85
